sensor_id;sensor_type;location;lat;lon;timestamp;pressure;altitude;pressure_sealevel;temperature;humidity
56414;BME280;42318;48.452;19.526;2022-07-10T00:03:09;98311.00;;;23.13;42.90
56414;BME280;42318;48.452;19.526;2022-07-10T00:10:40;98315.13;;;23.10;42.45
56414;BME280;42318;48.452;19.526;2022-07-10T00:18:11;98311.59;;;23.10;42.11
56414;BME280;42318;48.452;19.526;2022-07-10T00:25:42;98297.38;;;23.08;42.33
56414;BME280;42318;48.452;19.526;2022-07-10T00:33:13;98295.75;;;23.07;42.32
56414;BME280;42318;48.452;19.526;2022-07-10T00:40:43;98289.47;;;23.06;42.57
56414;BME280;42318;48.452;19.526;2022-07-10T00:48:14;98274.44;;;23.04;42.33
56414;BME280;42318;48.452;19.526;2022-07-10T00:55:45;98267.91;;;23.00;42.26
56414;BME280;42318;48.452;19.526;2022-07-10T01:03:15;98263.78;;;22.97;42.68
56414;BME280;42318;48.452;19.526;2022-07-10T01:10:47;98258.06;;;22.99;42.27
56414;BME280;42318;48.452;19.526;2022-07-10T01:18:18;98250.41;;;22.96;42.66
56414;BME280;42318;48.452;19.526;2022-07-10T01:25:50;98247.97;;;22.94;43.08
56414;BME280;42318;48.452;19.526;2022-07-10T01:33:20;98247.16;;;22.88;42.40
56414;BME280;42318;48.452;19.526;2022-07-10T01:40:51;98247.16;;;22.94;45.12
56414;BME280;42318;48.452;19.526;2022-07-10T01:48:22;98247.97;;;22.94;44.66
56414;BME280;42318;48.452;19.526;2022-07-10T01:55:53;98242.78;;;22.93;43.85
56414;BME280;42318;48.452;19.526;2022-07-10T02:03:23;98258.34;;;22.92;43.92
56414;BME280;42318;48.452;19.526;2022-07-10T02:11:13;98245.25;;;22.89;43.73
56414;BME280;42318;48.452;19.526;2022-07-10T02:18:43;98244.72;;;22.87;43.48
56414;BME280;42318;48.452;19.526;2022-07-10T02:26:14;98240.34;;;22.86;43.81
56414;BME280;42318;48.452;19.526;2022-07-10T02:33:45;98236.84;;;22.80;45.23
56414;BME280;42318;48.452;19.526;2022-07-10T02:41:15;98247.72;;;22.91;45.95
56414;BME280;42318;48.452;19.526;2022-07-10T02:48:46;98252.63;;;22.94;46.36
56414;BME280;42318;48.452;19.526;2022-07-10T02:56:17;98241.13;;;22.97;46.38
56414;BME280;42318;48.452;19.526;2022-07-10T03:03:48;98248.22;;;22.98;46.48
56414;BME280;42318;48.452;19.526;2022-07-10T03:11:18;98258.06;;;22.99;46.67
56414;BME280;42318;48.452;19.526;2022-07-10T03:18:49;98258.63;;;23.01;46.89
56414;BME280;42318;48.452;19.526;2022-07-10T03:26:20;98251.22;;;23.01;46.31
56414;BME280;42318;48.452;19.526;2022-07-10T03:33:50;98245.50;;;23.03;46.68
56414;BME280;42318;48.452;19.526;2022-07-10T03:41:23;98231.56;;;22.99;46.75
56414;BME280;42318;48.452;19.526;2022-07-10T03:48:53;98234.56;;;22.98;46.81
56414;BME280;42318;48.452;19.526;2022-07-10T03:56:24;98219.53;;;23.00;46.65
56414;BME280;42318;48.452;19.526;2022-07-10T04:04:13;98214.91;;;23.01;47.07
56414;BME280;42318;48.452;19.526;2022-07-10T04:11:44;98228.53;;;23.06;46.94
56414;BME280;42318;48.452;19.526;2022-07-10T04:19:15;98206.97;;;22.99;46.83
56414;BME280;42318;48.452;19.526;2022-07-10T04:26:46;98212.41;;;23.04;46.79
56414;BME280;42318;48.452;19.526;2022-07-10T04:34:17;98201.19;;;23.06;46.84
56414;BME280;42318;48.452;19.526;2022-07-10T04:41:47;98200.09;;;23.07;47.05
56414;BME280;42318;48.452;19.526;2022-07-10T04:49:18;98209.13;;;23.07;47.00
56414;BME280;42318;48.452;19.526;2022-07-10T04:56:49;98205.56;;;23.07;47.50
56414;BME280;42318;48.452;19.526;2022-07-10T05:04:20;98183.75;;;23.02;47.40
56414;BME280;42318;48.452;19.526;2022-07-10T05:11:51;98184.81;;;23.06;47.50
56414;BME280;42318;48.452;19.526;2022-07-10T05:19:22;98179.06;;;23.07;47.12
56414;BME280;42318;48.452;19.526;2022-07-10T05:26:53;98182.88;;;23.06;47.06
56414;BME280;42318;48.452;19.526;2022-07-10T05:34:23;98176.59;;;23.06;47.61
56414;BME280;42318;48.452;19.526;2022-07-10T05:41:54;98177.44;;;23.06;47.40
56414;BME280;42318;48.452;19.526;2022-07-10T05:49:26;98178.25;;;23.07;47.40
56414;BME280;42318;48.452;19.526;2022-07-10T05:56:57;98161.31;;;23.05;47.51
56414;BME280;42318;48.452;19.526;2022-07-10T06:04:28;98155.84;;;23.05;47.31
56414;BME280;42318;48.452;19.526;2022-07-10T06:11:59;98145.75;;;23.05;47.40
56414;BME280;42318;48.452;19.526;2022-07-10T06:19:29;98146.56;;;23.06;47.54
56414;BME280;42318;48.452;19.526;2022-07-10T06:27:00;98141.38;;;23.04;47.42
56414;BME280;42318;48.452;19.526;2022-07-10T06:34:31;98139.47;;;23.05;47.69
56414;BME280;42318;48.452;19.526;2022-07-10T06:42:05;98139.47;;;23.05;47.59
56414;BME280;42318;48.452;19.526;2022-07-10T06:49:37;98128.53;;;23.05;47.31
56414;BME280;42318;48.452;19.526;2022-07-10T06:57:07;98134.53;;;23.07;47.47
56414;BME280;42318;48.452;19.526;2022-07-10T07:04:38;98139.75;;;23.03;47.67
56414;BME280;42318;48.452;19.526;2022-07-10T07:12:09;98139.16;;;23.06;47.55
56414;BME280;42318;48.452;19.526;2022-07-10T07:19:40;98159.13;;;23.07;47.64
56414;BME280;42318;48.452;19.526;2022-07-10T07:27:30;98145.22;;;23.03;47.84
56414;BME280;42318;48.452;19.526;2022-07-10T07:35:01;98149.28;;;23.06;47.72
56414;BME280;42318;48.452;19.526;2022-07-10T07:42:31;98149.53;;;23.09;47.44
56414;BME280;42318;48.452;19.526;2022-07-10T07:50:02;98146.56;;;23.06;47.88
56414;BME280;42318;48.452;19.526;2022-07-10T07:57:34;98145.69;;;23.10;47.98
56414;BME280;42318;48.452;19.526;2022-07-10T08:05:05;98137.78;;;23.09;47.58
56414;BME280;42318;48.452;19.526;2022-07-10T08:12:36;98141.34;;;23.09;47.70
56414;BME280;42318;48.452;19.526;2022-07-10T08:20:11;98142.16;;;23.10;47.56
56414;BME280;42318;48.452;19.526;2022-07-10T08:27:42;98122.72;;;23.11;47.64
56414;BME280;42318;48.452;19.526;2022-07-10T08:35:13;98128.19;;;23.11;47.71
56414;BME280;42318;48.452;19.526;2022-07-10T08:42:44;98121.63;;;23.12;47.90
56414;BME280;42318;48.452;19.526;2022-07-10T08:50:23;98117.78;;;23.13;47.38
56414;BME280;42318;48.452;19.526;2022-07-10T08:57:55;98113.97;;;23.14;47.64
56414;BME280;42318;48.452;19.526;2022-07-10T09:05:26;98099.50;;;23.14;47.42
56414;BME280;42318;48.452;19.526;2022-07-10T09:13:01;98089.91;;;23.16;47.49
56414;BME280;42318;48.452;19.526;2022-07-10T09:28:05;98094.53;;;23.16;47.69
56414;BME280;42318;48.452;19.526;2022-07-10T09:35:36;98080.34;;;23.14;47.53
56414;BME280;42318;48.452;19.526;2022-07-10T09:43:25;98079.78;;;23.17;47.54
56414;BME280;42318;48.452;19.526;2022-07-10T09:50:56;98067.75;;;23.18;47.77
56414;BME280;42318;48.452;19.526;2022-07-10T09:58:30;98075.41;;;23.16;47.69
56414;BME280;42318;48.452;19.526;2022-07-10T10:13:36;98063.63;;;23.21;47.80
56414;BME280;42318;48.452;19.526;2022-07-10T10:21:07;98056.25;;;23.21;47.90
56414;BME280;42318;48.452;19.526;2022-07-10T10:28:38;98059.78;;;23.22;47.95
56414;BME280;42318;48.452;19.526;2022-07-10T10:36:15;98045.88;;;23.18;48.20
56414;BME280;42318;48.452;19.526;2022-07-10T11:07:54;98013.56;;;23.25;47.69
56414;BME280;42318;48.452;19.526;2022-07-10T11:15:26;98020.66;;;23.26;47.76
56414;BME280;42318;48.452;19.526;2022-07-10T11:30:58;97983.78;;;23.24;48.11
56414;BME280;42318;48.452;19.526;2022-07-10T11:38:29;98005.88;;;23.27;48.13
56414;BME280;42318;48.452;19.526;2022-07-10T11:46:01;97991.16;;;23.23;48.25
56414;BME280;42318;48.452;19.526;2022-07-10T11:53:32;97986.75;;;23.27;47.85
56414;BME280;42318;48.452;19.526;2022-07-10T12:01:03;97999.59;;;23.27;47.87
56414;BME280;42318;48.452;19.526;2022-07-10T12:08:47;97990.00;;;23.29;47.72
56414;BME280;42318;48.452;19.526;2022-07-10T12:16:18;98000.94;;;23.29;47.99
56414;BME280;42318;48.452;19.526;2022-07-10T12:23:49;98029.91;;;23.30;48.28
56414;BME280;42318;48.452;19.526;2022-07-10T12:31:24;98052.06;;;23.29;48.11
56414;BME280;42318;48.452;19.526;2022-07-10T12:38:56;98049.88;;;23.31;47.83
56414;BME280;42318;48.452;19.526;2022-07-10T12:46:30;98037.06;;;23.26;48.23
56414;BME280;42318;48.452;19.526;2022-07-10T12:54:01;98032.69;;;23.25;48.07
56414;BME280;42318;48.452;19.526;2022-07-10T13:01:44;98032.41;;;23.27;48.27
56414;BME280;42318;48.452;19.526;2022-07-10T13:09:25;98028.53;;;23.33;48.06
56414;BME280;42318;48.452;19.526;2022-07-10T13:16:56;98034.50;;;23.35;47.85
56414;BME280;42318;48.452;19.526;2022-07-10T13:24:26;98016.78;;;23.32;48.24
56414;BME280;42318;48.452;19.526;2022-07-10T13:31:57;98009.97;;;23.30;48.43
56414;BME280;42318;48.452;19.526;2022-07-10T13:39:28;98015.66;;;23.33;48.29
56414;BME280;42318;48.452;19.526;2022-07-10T13:46:58;98003.69;;;23.29;48.25
56414;BME280;42318;48.452;19.526;2022-07-10T13:54:29;98021.94;;;23.34;47.91
56414;BME280;42318;48.452;19.526;2022-07-10T14:02:00;98036.97;;;23.36;48.09
56414;BME280;42318;48.452;19.526;2022-07-10T14:09:30;98059.63;;;23.37;48.27
56414;BME280;42318;48.452;19.526;2022-07-10T14:17:01;98073.03;;;23.38;48.26
56414;BME280;42318;48.452;19.526;2022-07-10T14:24:32;98080.41;;;23.38;48.22
56414;BME280;42318;48.452;19.526;2022-07-10T14:32:03;98094.91;;;23.38;47.86
56414;BME280;42318;48.452;19.526;2022-07-10T14:39:34;98087.50;;;23.39;47.88
56414;BME280;42318;48.452;19.526;2022-07-10T14:47:05;98083.66;;;23.40;48.19
56414;BME280;42318;48.452;19.526;2022-07-10T14:54:36;98102.56;;;23.41;48.01
56414;BME280;42318;48.452;19.526;2022-07-10T15:02:07;98105.28;;;23.41;48.16
56414;BME280;42318;48.452;19.526;2022-07-10T15:09:38;98121.13;;;23.44;47.84
56414;BME280;42318;48.452;19.526;2022-07-10T15:17:08;98130.41;;;23.43;47.86
56414;BME280;42318;48.452;19.526;2022-07-10T15:24:39;98133.44;;;23.42;47.82
56414;BME280;42318;48.452;19.526;2022-07-10T15:32:12;98146.00;;;23.43;47.77
56414;BME280;42318;48.452;19.526;2022-07-10T15:39:43;98138.91;;;23.42;47.85
56414;BME280;42318;48.452;19.526;2022-07-10T15:47:14;98136.19;;;23.42;47.97
56414;BME280;42318;48.452;19.526;2022-07-10T15:54:45;98137.00;;;23.42;47.79
56414;BME280;42318;48.452;19.526;2022-07-10T16:02:16;98137.00;;;23.37;48.08
56414;BME280;42318;48.452;19.526;2022-07-10T16:09:46;98141.63;;;23.42;47.65
56414;BME280;42318;48.452;19.526;2022-07-10T16:17:19;98156.13;;;23.42;47.82
56414;BME280;42318;48.452;19.526;2022-07-10T16:24:50;98156.13;;;23.42;47.65
56414;BME280;42318;48.452;19.526;2022-07-10T16:32:40;98152.03;;;23.40;47.58
56414;BME280;42318;48.452;19.526;2022-07-10T16:40:11;98157.22;;;23.41;47.29
56414;BME280;42318;48.452;19.526;2022-07-10T16:47:42;98160.78;;;23.42;47.60
56414;BME280;42318;48.452;19.526;2022-07-10T16:55:12;98157.22;;;23.41;47.76
56414;BME280;42318;48.452;19.526;2022-07-10T17:02:44;98161.03;;;23.40;47.80
56414;BME280;42318;48.452;19.526;2022-07-10T17:10:15;98169.25;;;23.40;47.43
56414;BME280;42318;48.452;19.526;2022-07-10T17:17:46;98170.91;;;23.41;47.77
56414;BME280;42318;48.452;19.526;2022-07-10T17:25:17;98181.00;;;23.41;47.65
56414;BME280;42318;48.452;19.526;2022-07-10T17:32:48;98189.19;;;23.41;47.57
56414;BME280;42318;48.452;19.526;2022-07-10T17:40:19;98189.47;;;23.39;47.89
56414;BME280;42318;48.452;19.526;2022-07-10T17:47:50;98202.34;;;23.39;47.77
56414;BME280;42318;48.452;19.526;2022-07-10T17:55:21;98203.72;;;23.36;48.13
56414;BME280;42318;48.452;19.526;2022-07-10T18:02:52;98216.00;;;23.39;47.85
56414;BME280;42318;48.452;19.526;2022-07-10T18:10:22;98226.13;;;23.38;48.00
56414;BME280;42318;48.452;19.526;2022-07-10T18:17:53;98225.88;;;23.35;47.98
56414;BME280;42318;48.452;19.526;2022-07-10T18:25:24;98237.06;;;23.38;48.08
56414;BME280;42318;48.452;19.526;2022-07-10T18:32:55;98238.97;;;23.38;47.67
56414;BME280;42318;48.452;19.526;2022-07-10T18:40:44;98252.66;;;23.38;47.55
56414;BME280;42318;48.452;19.526;2022-07-10T18:48:15;98249.91;;;23.38;48.01
56414;BME280;42318;48.452;19.526;2022-07-10T18:55:46;98264.41;;;23.38;47.68
56414;BME280;42318;48.452;19.526;2022-07-10T19:03:17;98272.88;;;23.37;48.15
56414;BME280;42318;48.452;19.526;2022-07-10T19:10:47;98282.19;;;23.36;47.75
56414;BME280;42318;48.452;19.526;2022-07-10T19:18:18;98294.22;;;23.35;48.11
56414;BME280;42318;48.452;19.526;2022-07-10T19:25:49;98295.31;;;23.34;47.61
56414;BME280;42318;48.452;19.526;2022-07-10T19:33:21;98299.41;;;23.36;48.06
56414;BME280;42318;48.452;19.526;2022-07-10T19:40:53;98324.53;;;23.38;48.43
56414;BME280;42318;48.452;19.526;2022-07-10T19:48:24;98331.13;;;23.37;48.48
56414;BME280;42318;48.452;19.526;2022-07-10T19:55:56;98330.00;;;23.38;49.04
56414;BME280;42318;48.452;19.526;2022-07-10T20:03:28;98353.00;;;23.37;49.55
56414;BME280;42318;48.452;19.526;2022-07-10T20:10:59;98340.13;;;23.38;50.40
56414;BME280;42318;48.452;19.526;2022-07-10T20:18:30;98339.03;;;23.39;51.04
56414;BME280;42318;48.452;19.526;2022-07-10T20:26:01;98354.34;;;23.40;51.65
56414;BME280;42318;48.452;19.526;2022-07-10T20:33:32;98353.25;;;23.41;52.03
56414;BME280;42318;48.452;19.526;2022-07-10T20:41:03;98360.38;;;23.42;52.16
56414;BME280;42318;48.452;19.526;2022-07-10T20:48:34;98366.91;;;23.41;52.57
56414;BME280;42318;48.452;19.526;2022-07-10T20:56:05;98370.75;;;23.40;53.19
56414;BME280;42318;48.452;19.526;2022-07-10T21:03:35;98369.13;;;23.44;53.32
56414;BME280;42318;48.452;19.526;2022-07-10T21:11:06;98366.38;;;23.44;53.44
56414;BME280;42318;48.452;19.526;2022-07-10T21:18:37;98373.47;;;23.45;53.39
56414;BME280;42318;48.452;19.526;2022-07-10T21:26:07;98374.31;;;23.45;53.47
56414;BME280;42318;48.452;19.526;2022-07-10T21:33:38;98367.19;;;23.44;53.40
56414;BME280;42318;48.452;19.526;2022-07-10T21:41:09;98364.19;;;23.46;53.53
56414;BME280;42318;48.452;19.526;2022-07-10T21:48:40;98369.66;;;23.46;53.56
56414;BME280;42318;48.452;19.526;2022-07-10T21:56:11;98369.66;;;23.46;53.84
56414;BME280;42318;48.452;19.526;2022-07-10T22:03:41;98377.03;;;23.45;54.07
56414;BME280;42318;48.452;19.526;2022-07-10T22:11:12;98377.84;;;23.46;54.01
56414;BME280;42318;48.452;19.526;2022-07-10T22:18:43;98375.41;;;23.44;53.63
56414;BME280;42318;48.452;19.526;2022-07-10T22:26:14;98375.69;;;23.43;52.82
56414;BME280;42318;48.452;19.526;2022-07-10T22:33:45;98375.97;;;23.41;52.10
56414;BME280;42318;48.452;19.526;2022-07-10T22:41:16;98378.94;;;23.40;51.81
56414;BME280;42318;48.452;19.526;2022-07-10T22:48:47;98393.44;;;23.40;51.87
56414;BME280;42318;48.452;19.526;2022-07-10T22:56:17;98396.44;;;23.39;51.62
56414;BME280;42318;48.452;19.526;2022-07-10T23:03:48;98395.63;;;23.38;51.23
56414;BME280;42318;48.452;19.526;2022-07-10T23:11:19;98396.72;;;23.37;50.89
56414;BME280;42318;48.452;19.526;2022-07-10T23:18:50;98396.19;;;23.35;50.86
56414;BME280;42318;48.452;19.526;2022-07-10T23:26:21;98404.69;;;23.34;50.38
56414;BME280;42318;48.452;19.526;2022-07-10T23:33:51;98407.69;;;23.32;50.65
56414;BME280;42318;48.452;19.526;2022-07-10T23:41:22;98400.59;;;23.31;50.58
56414;BME280;42318;48.452;19.526;2022-07-10T23:48:53;98403.59;;;23.30;50.42
56414;BME280;42318;48.452;19.526;2022-07-10T23:56:42;98412.91;;;23.29;50.19
